KNKX

Miramar MCAS Airport

San Diego, California, USA
METAR KNKX 212055Z 24007KT 10SM CLR 25/15 A2994 RMK AO2 SLP132 T02500150 56004
Observed Flight Rules
Jun-21 @ 20:55 UTC (an hour ago) Visual Flight Rules
Wind Visibility Clouds
240° at 7 knots 10 miles
  • Clear skies
Temperatures Readings
Current 25°C / 77°F
Dewpoint 15°C / 59°F
Humidity 54%
Altimeter 29.94" Hg
Pressure 1013.2 hPa
Elevation 146
METAR KNKX 212055Z 24007KT 10SM CLR 25/15 A2994 RMK AO2 SLP132 T02500150 56004
Observed Flight Rules
Jun-21 @ 20:55 UTC
(an hour ago)
VFR
Wind Visibility
240° at 7 knots 10 miles
Clouds
  • Clear skies
Temperature Dewpoint
25°C / 77°F 15°C / 59°F
Humidity Altimeter Pressure
54% 29.94" Hg 1013.2 hPa